| time (UTC) | temp C | wind direction | speed KPH | gust KPH | rain 1hr cm | rain 24hr cm | rain mn cm | humidity % | barometer mb |
| 20260505124538 | -17 | 0.0 | 0.0 | 0.00 | 0.00 | 0.00 | 1001.3 | ||
| 20260505123014 | -17 | 0.0 | 0.0 | 0.00 | 0.00 | 0.00 | 1001.3 | ||
| 20260505121510 | -17 | 0.0 | 0.0 | 0.00 | 0.00 | 0.00 | 1000.9 | ||
| 20260505120050 | -17 | 0.0 | 0.0 | 0.00 | 0.00 | 0.00 | 1000.7 | ||
| 20260505114544 | -17 | 0.0 | 0.0 | 0.00 | 0.00 | 0.00 | 1000.7 | ||
| 20260505113024 | -17 | 0.0 | 0.0 | 0.00 | 0.00 | 0.00 | 1000.4 | ||
| 20260505111518 | -17 | 0.0 | 0.0 | 0.00 | 0.00 | 0.00 | 1000.4 | ||
| 20260505101533 | -17 | 0.0 | 0.0 | 0.00 | 0.00 | 0.00 | 1000.1 | ||
| 20260505100010 | -17 | 0.0 | 0.0 | 0.00 | 0.00 | 0.00 | 1000.2 | ||
| 20260505094600 | -17 | 0.0 | 0.0 | 0.00 | 0.00 | 0.00 | 1000.1 | ||
| 20260505093040 | -17 | 0.0 | 0.0 | 0.00 | 0.00 | 0.00 | 1000.1 | ||
| 20260505091538 | -17 | 0.0 | 0.0 | 0.00 | 0.00 | 0.00 | 1000.1 | ||
| 20260505090012 | -17 | 0.0 | 0.0 | 0.00 | 0.00 | 0.00 | 1000.0 | ||
| 20260505084508 | -17 | 0.0 | 0.0 | 0.00 | 0.00 | 0.00 | 999.9 | ||
| 20260505083105 | -17 | 0.0 | 0.0 | 0.00 | 0.00 | 0.00 | 999.6 | ||
| 20260505081554 | -17 | 0.0 | 0.0 | 0.00 | 0.00 | 0.00 | 999.6 | ||
| 20260505080038 | -17 | 0.0 | 0.0 | 0.00 | 0.00 | 0.00 | 999.8 | ||
| 20260505074516 | -17 | 0.0 | 0.0 | 0.00 | 0.00 | 0.00 | 1000.0 | ||
| 20260505073012 | -17 | 0.0 | 0.0 | 0.00 | 0.00 | 0.00 | 1000.3 | ||
| 20260505071556 | -17 | 0.0 | 0.0 | 0.00 | 0.00 | 0.00 | 1000.5 | ||
| 20260505070049 | -17 | 0.0 | 0.0 | 0.00 | 0.00 | 0.00 | 1000.6 | ||
| 20260505064523 | -17 | 0.0 | 0.0 | 0.00 | 0.00 | 0.00 | 1000.6 | ||
| 20260505063019 | -17 | 0.0 | 0.0 | 0.00 | 0.00 | 0.00 | 1000.3 | ||
| 20260505061638 | -17 | 0.0 | 0.0 | 0.00 | 0.00 | 0.00 | 1000.8 | ||
| 20260505060101 | -17 | 0.0 | 0.0 | 0.00 | 0.00 | 0.00 | 1001.1 | ||
| 20260505054531 | -17 | 0.0 | 0.0 | 0.00 | 0.00 | 0.00 | 1001.3 | ||
| 20260505053035 | 11 | 314 | 0.0 | 3.2 | 0.00 | 0.00 | 0.00 | 54 | 1000.8 |
| 20260505051529 | 11 | 325 | 0.0 | 11.3 | 0.00 | 0.00 | 0.00 | 53 | 1000.7 |
| 20260505041533 | 13 | 30 | 9.7 | 16.1 | 0.00 | 0.00 | 0.00 | 44 | 1000.3 |
| 20260505040033 | 14 | 29 | 3.2 | 9.7 | 0.00 | 0.00 | 0.00 | 42 | 1000.2 |
| 20260505034516 | 15 | 30 | 4.8 | 12.9 | 0.00 | 0.00 | 0.00 | 39 | 1000.2 |
| 20260505033014 | 14 | 27 | 0.0 | 11.3 | 0.00 | 0.00 | 0.00 | 41 | 999.9 |
| 20260505031558 | 13 | 45 | 0.0 | 14.5 | 0.00 | 0.00 | 0.00 | 45 | 999.6 |
| 20260505030054 | 13 | 15 | 6.4 | 17.7 | 0.00 | 0.00 | 0.00 | 50 | 999.8 |
| 20260505024539 | 13 | 329 | 4.8 | 12.9 | 0.00 | 0.00 | 0.00 | 49 | 999.4 |
| 20260505023036 | 14 | 158 | 9.7 | 17.7 | 0.00 | 0.00 | 0.00 | 42 | 998.7 |
| 20260505021515 | 15 | 161 | 16.1 | 25.7 | 0.00 | 0.00 | 0.00 | 42 | 998.5 |
| 20260505020015 | 15 | 143 | 19.3 | 27.4 | 0.00 | 0.00 | 0.00 | 42 | 998.6 |
| 20260505014557 | 16 | 155 | 25.7 | 35.4 | 0.00 | 0.00 | 0.00 | 41 | 998.7 |
| 20260505013104 | 16 | 152 | 22.5 | 35.4 | 0.00 | 0.00 | 0.00 | 39 | 998.7 |
| 20260505011538 | 17 | 162 | 33.8 | 43.5 | 0.00 | 0.00 | 0.00 | 37 | 998.7 |
| 20260505010037 | 17 | 187 | 25.7 | 37.0 | 0.00 | 0.00 | 0.00 | 35 | 998.5 |
| 20260505004520 | 19 | 262 | 19.3 | 38.6 | 0.00 | 0.00 | 0.00 | 25 | 998.5 |
| 20260505003021 | 19 | 312 | 12.9 | 22.5 | 0.00 | 0.00 | 0.00 | 24 | 998.5 |
| 20260505001605 | 20 | 334 | 14.5 | 24.1 | 0.00 | 0.00 | 0.00 | 27 | 998.3 |
| 20260504234541 | 20 | 49 | 14.5 | 27.4 | 0.00 | 0.00 | 0.00 | 28 | 998.2 |
| 20260504233052 | 19 | 25 | 27.4 | 43.5 | 0.00 | 0.00 | 0.00 | 29 | 998.3 |
| 20260504231523 | 19 | 26 | 16.1 | 25.7 | 0.00 | 0.00 | 0.00 | 27 | 998.2 |
| 20260504230020 | 20 | 4 | 14.5 | 27.4 | 0.00 | 0.00 | 0.00 | 24 | 998.1 |
| 20260504224507 | 19 | 356 | 20.9 | 48.3 | 0.00 | 0.00 | 0.00 | 26 | 998.4 |
| 20260504223006 | 19 | 346 | 29.0 | 37.0 | 0.00 | 0.00 | 0.00 | 29 | 998.5 |
| 20260504221505 | 21 | 345 | 0.0 | 9.7 | 0.00 | 0.00 | 0.00 | 21 | 998.6 |
| 20260504220003 | 22 | 128 | 6.4 | 12.9 | 0.00 | 0.00 | 0.00 | 21 | 998.7 |
| 20260504214558 | 21 | 191 | 0.0 | 9.7 | 0.00 | 0.00 | 0.00 | 23 | 999.0 |
| 20260504213055 | 20 | 59 | 1.6 | 20.9 | 0.00 | 0.00 | 0.00 | 22 | 999.2 |
| 20260504211552 | 18 | 15 | 20.9 | 37.0 | 0.00 | 0.00 | 0.00 | 27 | 999.6 |
| 20260504210105 | 20 | 28 | 6.4 | 14.5 | 0.00 | 0.00 | 0.00 | 24 | 999.7 |
| 20260504204533 | 20 | 305 | 0.0 | 14.5 | 0.00 | 0.00 | 0.00 | 24 | 999.7 |
| 20260504203043 | 20 | 36 | 3.2 | 9.7 | 0.00 | 0.00 | 0.00 | 24 | 999.8 |
| 20260504201508 | 20 | 159 | 1.6 | 8.0 | 0.00 | 0.00 | 0.00 | 23 | 999.9 |
| 20260504200006 | 20 | 207 | 11.3 | 19.3 | 0.00 | 0.00 | 0.00 | 25 | 1000.2 |
| 20260504194546 | 20 | 130 | 17.7 | 29.0 | 0.00 | 0.00 | 0.00 | 28 | 1000.3 |
| 20260504193046 | 20 | 153 | 19.3 | 37.0 | 0.00 | 0.00 | 0.00 | 27 | 1000.6 |
| 20260504191524 | 20 | 160 | 19.3 | 32.2 | 0.00 | 0.00 | 0.00 | 29 | 1000.8 |
| 20260504190018 | 20 | 186 | 16.1 | 35.4 | 0.00 | 0.00 | 0.00 | 30 | 1001.0 |
| 20260504184557 | 19 | 151 | 17.7 | 33.8 | 0.00 | 0.00 | 0.00 | 31 | 1001.4 |
| 20260504183055 | 18 | 173 | 19.3 | 32.2 | 0.00 | 0.00 | 0.00 | 31 | 1001.7 |
| 20260504181540 | 18 | 210 | 19.3 | 33.8 | 0.00 | 0.00 | 0.00 | 31 | 1001.9 |
| 20260504180032 | 18 | 214 | 24.1 | 35.4 | 0.00 | 0.00 | 0.00 | 32 | 1002.2 |
| 20260504174511 | 17 | 168 | 22.5 | 32.2 | 0.00 | 0.00 | 0.00 | 32 | 1002.3 |
| 20260504173009 | 17 | 177 | 22.5 | 33.8 | 0.00 | 0.00 | 0.00 | 33 | 1002.4 |
| 20260504171550 | 17 | 181 | 22.5 | 38.6 | 0.00 | 0.00 | 0.00 | 35 | 1002.6 |